sensor_id;sensor_type;location;lat;lon;timestamp;P1;durP1;ratioP1;P2;durP2;ratioP2
7334;SDS011;3708;42.632;23.378;2022-09-09T00:01:08;11.87;;;8.03;;
7334;SDS011;3708;42.632;23.378;2022-09-09T00:03:44;13.67;;;7.67;;
7334;SDS011;3708;42.632;23.378;2022-09-09T00:06:17;9.60;;;7.97;;
7334;SDS011;3708;42.632;23.378;2022-09-09T00:08:51;7.43;;;6.67;;
7334;SDS011;3708;42.632;23.378;2022-09-09T00:11:28;12.03;;;7.00;;
7334;SDS011;3708;42.632;23.378;2022-09-09T00:14:03;11.47;;;7.77;;
7334;SDS011;3708;42.632;23.378;2022-09-09T00:16:40;10.27;;;7.87;;
7334;SDS011;3708;42.632;23.378;2022-09-09T00:19:12;9.20;;;7.60;;
7334;SDS011;3708;42.632;23.378;2022-09-09T00:21:48;12.93;;;7.90;;
7334;SDS011;3708;42.632;23.378;2022-09-09T00:24:28;7.40;;;6.60;;
7334;SDS011;3708;42.632;23.378;2022-09-09T00:27:01;9.37;;;7.37;;
7334;SDS011;3708;42.632;23.378;2022-09-09T00:29:33;10.00;;;6.90;;
7334;SDS011;3708;42.632;23.378;2022-09-09T00:32:09;9.40;;;7.40;;
7334;SDS011;3708;42.632;23.378;2022-09-09T00:34:39;7.70;;;5.97;;
7334;SDS011;3708;42.632;23.378;2022-09-09T00:37:14;8.77;;;6.20;;
7334;SDS011;3708;42.632;23.378;2022-09-09T00:39:42;9.50;;;6.40;;
7334;SDS011;3708;42.632;23.378;2022-09-09T00:42:14;7.33;;;6.63;;
7334;SDS011;3708;42.632;23.378;2022-09-09T00:44:48;9.13;;;7.13;;
7334;SDS011;3708;42.632;23.378;2022-09-09T00:50:16;7.23;;;6.53;;
7334;SDS011;3708;42.632;23.378;2022-09-09T00:53:02;12.30;;;7.10;;
7334;SDS011;3708;42.632;23.378;2022-09-09T00:55:39;6.77;;;6.07;;
7334;SDS011;3708;42.632;23.378;2022-09-09T00:58:12;7.47;;;6.43;;
7334;SDS011;3708;42.632;23.378;2022-09-09T01:00:41;8.77;;;6.50;;
7334;SDS011;3708;42.632;23.378;2022-09-09T01:03:14;9.30;;;6.47;;
7334;SDS011;3708;42.632;23.378;2022-09-09T01:05:51;7.33;;;6.63;;
7334;SDS011;3708;42.632;23.378;2022-09-09T01:08:36;8.37;;;6.87;;
7334;SDS011;3708;42.632;23.378;2022-09-09T01:11:15;7.57;;;6.83;;
7334;SDS011;3708;42.632;23.378;2022-09-09T01:13:49;8.67;;;7.00;;
7334;SDS011;3708;42.632;23.378;2022-09-09T01:16:24;10.67;;;7.03;;
7334;SDS011;3708;42.632;23.378;2022-09-09T01:18:53;7.43;;;6.50;;
7334;SDS011;3708;42.632;23.378;2022-09-09T01:21:24;8.57;;;7.47;;
7334;SDS011;3708;42.632;23.378;2022-09-09T01:24:13;15.83;;;7.87;;
7334;SDS011;3708;42.632;23.378;2022-09-09T01:26:49;9.20;;;7.93;;
7334;SDS011;3708;42.632;23.378;2022-09-09T01:29:19;8.93;;;6.60;;
7334;SDS011;3708;42.632;23.378;2022-09-09T01:31:52;7.83;;;6.67;;
7334;SDS011;3708;42.632;23.378;2022-09-09T01:34:21;7.17;;;6.47;;
7334;SDS011;3708;42.632;23.378;2022-09-09T01:36:52;9.57;;;6.73;;
7334;SDS011;3708;42.632;23.378;2022-09-09T01:39:23;8.07;;;6.47;;
7334;SDS011;3708;42.632;23.378;2022-09-09T01:41:52;7.47;;;6.60;;
7334;SDS011;3708;42.632;23.378;2022-09-09T01:44:20;10.83;;;7.20;;
7334;SDS011;3708;42.632;23.378;2022-09-09T01:46:47;9.33;;;7.03;;
7334;SDS011;3708;42.632;23.378;2022-09-09T01:49:14;8.37;;;7.13;;
7334;SDS011;3708;42.632;23.378;2022-09-09T01:51:43;10.47;;;6.93;;
7334;SDS011;3708;42.632;23.378;2022-09-09T01:54:15;7.57;;;6.57;;
7334;SDS011;3708;42.632;23.378;2022-09-09T01:56:44;8.97;;;7.00;;
7334;SDS011;3708;42.632;23.378;2022-09-09T01:59:26;7.20;;;6.33;;
7334;SDS011;3708;42.632;23.378;2022-09-09T02:02:07;8.83;;;6.90;;
7334;SDS011;3708;42.632;23.378;2022-09-09T02:04:37;8.20;;;6.43;;
7334;SDS011;3708;42.632;23.378;2022-09-09T02:07:09;8.67;;;6.97;;
7334;SDS011;3708;42.632;23.378;2022-09-09T02:09:47;9.27;;;6.37;;
7334;SDS011;3708;42.632;23.378;2022-09-09T02:12:23;8.83;;;6.40;;
7334;SDS011;3708;42.632;23.378;2022-09-09T02:14:57;8.40;;;7.60;;
7334;SDS011;3708;42.632;23.378;2022-09-09T02:17:30;8.83;;;6.57;;
7334;SDS011;3708;42.632;23.378;2022-09-09T02:20:02;9.63;;;6.93;;
7334;SDS011;3708;42.632;23.378;2022-09-09T02:22:32;7.87;;;6.80;;
7334;SDS011;3708;42.632;23.378;2022-09-09T02:25:02;8.80;;;6.83;;
7334;SDS011;3708;42.632;23.378;2022-09-09T02:27:31;7.33;;;6.43;;
7334;SDS011;3708;42.632;23.378;2022-09-09T02:30:00;9.17;;;6.60;;
7334;SDS011;3708;42.632;23.378;2022-09-09T02:32:29;7.53;;;6.17;;
7334;SDS011;3708;42.632;23.378;2022-09-09T02:35:02;10.20;;;6.10;;
7334;SDS011;3708;42.632;23.378;2022-09-09T02:37:34;9.37;;;7.23;;
7334;SDS011;3708;42.632;23.378;2022-09-09T02:40:04;8.50;;;7.30;;
7334;SDS011;3708;42.632;23.378;2022-09-09T02:42:32;8.53;;;6.07;;
7334;SDS011;3708;42.632;23.378;2022-09-09T02:45:06;10.83;;;7.70;;
7334;SDS011;3708;42.632;23.378;2022-09-09T02:47:34;9.63;;;6.77;;
7334;SDS011;3708;42.632;23.378;2022-09-09T02:50:06;11.00;;;6.37;;
7334;SDS011;3708;42.632;23.378;2022-09-09T02:52:41;7.40;;;6.70;;
7334;SDS011;3708;42.632;23.378;2022-09-09T02:55:16;10.57;;;7.33;;
7334;SDS011;3708;42.632;23.378;2022-09-09T02:57:46;14.80;;;7.10;;
7334;SDS011;3708;42.632;23.378;2022-09-09T03:00:16;12.30;;;8.13;;
7334;SDS011;3708;42.632;23.378;2022-09-09T03:02:49;12.20;;;8.80;;
7334;SDS011;3708;42.632;23.378;2022-09-09T03:05:16;11.67;;;9.40;;
7334;SDS011;3708;42.632;23.378;2022-09-09T03:07:43;12.07;;;8.90;;
7334;SDS011;3708;42.632;23.378;2022-09-09T03:10:10;13.27;;;9.53;;
7334;SDS011;3708;42.632;23.378;2022-09-09T03:12:37;13.83;;;9.83;;
7334;SDS011;3708;42.632;23.378;2022-09-09T03:15:04;12.80;;;9.40;;
7334;SDS011;3708;42.632;23.378;2022-09-09T03:17:33;12.13;;;9.50;;
7334;SDS011;3708;42.632;23.378;2022-09-09T03:20:01;11.93;;;10.20;;
7334;SDS011;3708;42.632;23.378;2022-09-09T03:22:28;12.37;;;8.80;;
7334;SDS011;3708;42.632;23.378;2022-09-09T03:24:55;12.57;;;10.30;;
7334;SDS011;3708;42.632;23.378;2022-09-09T03:27:22;10.73;;;9.63;;
7334;SDS011;3708;42.632;23.378;2022-09-09T03:29:49;17.30;;;11.30;;
7334;SDS011;3708;42.632;23.378;2022-09-09T03:32:16;11.37;;;10.17;;
7334;SDS011;3708;42.632;23.378;2022-09-09T03:34:45;12.87;;;10.20;;
7334;SDS011;3708;42.632;23.378;2022-09-09T03:37:14;15.70;;;10.57;;
7334;SDS011;3708;42.632;23.378;2022-09-09T03:39:42;17.17;;;11.43;;
7334;SDS011;3708;42.632;23.378;2022-09-09T03:42:12;13.13;;;11.63;;
7334;SDS011;3708;42.632;23.378;2022-09-09T03:44:44;18.03;;;10.60;;
7334;SDS011;3708;42.632;23.378;2022-09-09T03:47:13;17.40;;;10.97;;
7334;SDS011;3708;42.632;23.378;2022-09-09T03:49:40;12.23;;;10.93;;
7334;SDS011;3708;42.632;23.378;2022-09-09T03:52:09;13.20;;;9.43;;
7334;SDS011;3708;42.632;23.378;2022-09-09T03:54:36;11.07;;;9.83;;
7334;SDS011;3708;42.632;23.378;2022-09-09T03:57:04;13.73;;;10.60;;
7334;SDS011;3708;42.632;23.378;2022-09-09T03:59:31;11.70;;;10.43;;
7334;SDS011;3708;42.632;23.378;2022-09-09T04:01:58;12.30;;;10.47;;
7334;SDS011;3708;42.632;23.378;2022-09-09T04:04:25;11.20;;;9.97;;
7334;SDS011;3708;42.632;23.378;2022-09-09T04:06:52;13.33;;;10.37;;
7334;SDS011;3708;42.632;23.378;2022-09-09T04:09:20;15.27;;;10.40;;
7334;SDS011;3708;42.632;23.378;2022-09-09T04:11:48;10.67;;;9.53;;
7334;SDS011;3708;42.632;23.378;2022-09-09T04:14:15;12.43;;;9.97;;
7334;SDS011;3708;42.632;23.378;2022-09-09T04:16:42;11.47;;;9.93;;
7334;SDS011;3708;42.632;23.378;2022-09-09T04:19:09;16.10;;;10.73;;
7334;SDS011;3708;42.632;23.378;2022-09-09T04:21:38;15.50;;;11.37;;
7334;SDS011;3708;42.632;23.378;2022-09-09T04:24:06;14.93;;;11.30;;
7334;SDS011;3708;42.632;23.378;2022-09-09T04:26:35;15.87;;;10.87;;
7334;SDS011;3708;42.632;23.378;2022-09-09T04:29:02;13.27;;;10.33;;
7334;SDS011;3708;42.632;23.378;2022-09-09T04:31:30;15.17;;;10.37;;
7334;SDS011;3708;42.632;23.378;2022-09-09T04:33:57;15.40;;;9.53;;
7334;SDS011;3708;42.632;23.378;2022-09-09T04:36:27;13.20;;;9.47;;
7334;SDS011;3708;42.632;23.378;2022-09-09T04:38:54;11.73;;;8.97;;
7334;SDS011;3708;42.632;23.378;2022-09-09T04:41:21;12.50;;;8.90;;
7334;SDS011;3708;42.632;23.378;2022-09-09T04:43:49;10.10;;;8.27;;
7334;SDS011;3708;42.632;23.378;2022-09-09T04:46:18;15.33;;;7.90;;
7334;SDS011;3708;42.632;23.378;2022-09-09T04:48:45;11.33;;;8.03;;
7334;SDS011;3708;42.632;23.378;2022-09-09T04:51:13;9.73;;;7.20;;
7334;SDS011;3708;42.632;23.378;2022-09-09T04:53:40;9.70;;;7.20;;
7334;SDS011;3708;42.632;23.378;2022-09-09T04:56:08;13.00;;;8.23;;
7334;SDS011;3708;42.632;23.378;2022-09-09T04:58:39;12.80;;;7.20;;
7334;SDS011;3708;42.632;23.378;2022-09-09T05:01:10;8.17;;;6.70;;
7334;SDS011;3708;42.632;23.378;2022-09-09T05:03:37;11.43;;;6.80;;
7334;SDS011;3708;42.632;23.378;2022-09-09T05:06:05;11.33;;;7.53;;
7334;SDS011;3708;42.632;23.378;2022-09-09T05:08:34;9.83;;;6.20;;
7334;SDS011;3708;42.632;23.378;2022-09-09T05:11:02;16.27;;;7.47;;
7334;SDS011;3708;42.632;23.378;2022-09-09T05:13:29;11.63;;;6.47;;
7334;SDS011;3708;42.632;23.378;2022-09-09T05:15:57;10.70;;;7.57;;
7334;SDS011;3708;42.632;23.378;2022-09-09T05:18:25;9.27;;;6.80;;
7334;SDS011;3708;42.632;23.378;2022-09-09T05:20:52;9.33;;;6.67;;
7334;SDS011;3708;42.632;23.378;2022-09-09T05:23:25;9.03;;;5.93;;
7334;SDS011;3708;42.632;23.378;2022-09-09T05:25:56;10.43;;;6.53;;
7334;SDS011;3708;42.632;23.378;2022-09-09T05:28:23;8.53;;;6.87;;
7334;SDS011;3708;42.632;23.378;2022-09-09T05:30:57;10.67;;;6.40;;
7334;SDS011;3708;42.632;23.378;2022-09-09T05:33:27;12.77;;;6.50;;
7334;SDS011;3708;42.632;23.378;2022-09-09T05:35:57;7.97;;;6.10;;
7334;SDS011;3708;42.632;23.378;2022-09-09T05:38:25;10.10;;;5.83;;
7334;SDS011;3708;42.632;23.378;2022-09-09T05:40:52;8.33;;;6.43;;
7334;SDS011;3708;42.632;23.378;2022-09-09T05:43:19;7.40;;;5.80;;
7334;SDS011;3708;42.632;23.378;2022-09-09T05:45:46;11.20;;;6.23;;
7334;SDS011;3708;42.632;23.378;2022-09-09T05:48:13;9.03;;;5.90;;
7334;SDS011;3708;42.632;23.378;2022-09-09T05:50:42;7.23;;;5.37;;
7334;SDS011;3708;42.632;23.378;2022-09-09T05:53:10;5.90;;;5.30;;
7334;SDS011;3708;42.632;23.378;2022-09-09T05:55:37;9.83;;;5.23;;
7334;SDS011;3708;42.632;23.378;2022-09-09T05:58:04;7.70;;;5.57;;
7334;SDS011;3708;42.632;23.378;2022-09-09T06:00:31;11.83;;;5.83;;
7334;SDS011;3708;42.632;23.378;2022-09-09T06:02:57;9.30;;;5.03;;
7334;SDS011;3708;42.632;23.378;2022-09-09T06:05:25;5.53;;;4.97;;
7334;SDS011;3708;42.632;23.378;2022-09-09T06:07:54;6.07;;;5.15;;
7334;SDS011;3708;42.632;23.378;2022-09-09T06:10:22;4.87;;;4.37;;
7334;SDS011;3708;42.632;23.378;2022-09-09T06:12:52;9.23;;;5.00;;
7334;SDS011;3708;42.632;23.378;2022-09-09T06:15:19;7.10;;;5.63;;
7334;SDS011;3708;42.632;23.378;2022-09-09T06:17:47;7.00;;;4.80;;
7334;SDS011;3708;42.632;23.378;2022-09-09T06:20:20;6.37;;;5.13;;
7334;SDS011;3708;42.632;23.378;2022-09-09T06:22:48;12.38;;;6.07;;
7334;SDS011;3708;42.632;23.378;2022-09-09T06:25:16;7.65;;;4.90;;
7334;SDS011;3708;42.632;23.378;2022-09-09T06:27:47;8.52;;;5.57;;
7334;SDS011;3708;42.632;23.378;2022-09-09T06:30:15;10.25;;;6.35;;
7334;SDS011;3708;42.632;23.378;2022-09-09T06:32:43;11.68;;;5.45;;
7334;SDS011;3708;42.632;23.378;2022-09-09T06:35:10;12.88;;;5.75;;
7334;SDS011;3708;42.632;23.378;2022-09-09T06:37:37;8.75;;;5.03;;
7334;SDS011;3708;42.632;23.378;2022-09-09T06:40:05;9.32;;;5.40;;
7334;SDS011;3708;42.632;23.378;2022-09-09T06:42:34;9.00;;;5.07;;
7334;SDS011;3708;42.632;23.378;2022-09-09T06:45:01;8.27;;;5.32;;
7334;SDS011;3708;42.632;23.378;2022-09-09T06:47:28;13.82;;;5.53;;
7334;SDS011;3708;42.632;23.378;2022-09-09T06:49:55;7.90;;;5.30;;
7334;SDS011;3708;42.632;23.378;2022-09-09T06:52:22;6.05;;;4.95;;
7334;SDS011;3708;42.632;23.378;2022-09-09T06:54:50;6.90;;;4.75;;
7334;SDS011;3708;42.632;23.378;2022-09-09T06:57:16;8.98;;;5.28;;
7334;SDS011;3708;42.632;23.378;2022-09-09T06:59:45;11.15;;;4.97;;
7334;SDS011;3708;42.632;23.378;2022-09-09T07:02:12;7.88;;;5.20;;
7334;SDS011;3708;42.632;23.378;2022-09-09T07:04:39;8.63;;;5.70;;
7334;SDS011;3708;42.632;23.378;2022-09-09T07:07:06;11.88;;;6.18;;
7334;SDS011;3708;42.632;23.378;2022-09-09T07:09:34;11.05;;;5.03;;
7334;SDS011;3708;42.632;23.378;2022-09-09T07:12:01;13.27;;;5.40;;
7334;SDS011;3708;42.632;23.378;2022-09-09T07:14:31;10.48;;;5.50;;
7334;SDS011;3708;42.632;23.378;2022-09-09T07:16:59;8.35;;;4.93;;
7334;SDS011;3708;42.632;23.378;2022-09-09T07:19:26;10.13;;;5.07;;
7334;SDS011;3708;42.632;23.378;2022-09-09T07:21:53;12.50;;;5.25;;
7334;SDS011;3708;42.632;23.378;2022-09-09T07:24:20;16.98;;;5.78;;
7334;SDS011;3708;42.632;23.378;2022-09-09T07:26:47;8.48;;;5.90;;
7334;SDS011;3708;42.632;23.378;2022-09-09T07:29:14;11.77;;;7.00;;
7334;SDS011;3708;42.632;23.378;2022-09-09T07:31:41;7.13;;;6.10;;
7334;SDS011;3708;42.632;23.378;2022-09-09T07:34:09;11.60;;;6.13;;
7334;SDS011;3708;42.632;23.378;2022-09-09T07:36:37;8.05;;;5.80;;
7334;SDS011;3708;42.632;23.378;2022-09-09T07:39:08;8.45;;;5.57;;
7334;SDS011;3708;42.632;23.378;2022-09-09T07:41:37;6.88;;;5.20;;
7334;SDS011;3708;42.632;23.378;2022-09-09T07:44:06;8.50;;;5.07;;
7334;SDS011;3708;42.632;23.378;2022-09-09T07:46:34;8.30;;;5.15;;
7334;SDS011;3708;42.632;23.378;2022-09-09T07:49:01;8.80;;;5.45;;
7334;SDS011;3708;42.632;23.378;2022-09-09T07:51:31;5.65;;;4.75;;
7334;SDS011;3708;42.632;23.378;2022-09-09T07:53:59;9.60;;;5.20;;
7334;SDS011;3708;42.632;23.378;2022-09-09T07:56:28;11.40;;;5.50;;
7334;SDS011;3708;42.632;23.378;2022-09-09T07:58:56;8.68;;;5.28;;
7334;SDS011;3708;42.632;23.378;2022-09-09T08:01:25;12.35;;;5.40;;
7334;SDS011;3708;42.632;23.378;2022-09-09T08:03:56;14.63;;;5.60;;
7334;SDS011;3708;42.632;23.378;2022-09-09T08:06:26;11.15;;;5.78;;
7334;SDS011;3708;42.632;23.378;2022-09-09T08:08:55;9.02;;;5.38;;
7334;SDS011;3708;42.632;23.378;2022-09-09T08:11:23;8.60;;;5.20;;
7334;SDS011;3708;42.632;23.378;2022-09-09T08:13:52;11.02;;;5.10;;
7334;SDS011;3708;42.632;23.378;2022-09-09T08:16:20;8.95;;;5.45;;
7334;SDS011;3708;42.632;23.378;2022-09-09T08:18:49;7.45;;;4.50;;
7334;SDS011;3708;42.632;23.378;2022-09-09T08:21:17;6.97;;;5.30;;
7334;SDS011;3708;42.632;23.378;2022-09-09T08:23:46;7.70;;;5.10;;
7334;SDS011;3708;42.632;23.378;2022-09-09T08:26:16;7.80;;;5.13;;
7334;SDS011;3708;42.632;23.378;2022-09-09T08:28:44;7.65;;;5.10;;
7334;SDS011;3708;42.632;23.378;2022-09-09T08:31:12;8.60;;;4.95;;
7334;SDS011;3708;42.632;23.378;2022-09-09T08:33:40;12.00;;;4.85;;
7334;SDS011;3708;42.632;23.378;2022-09-09T08:36:11;11.52;;;4.97;;
7334;SDS011;3708;42.632;23.378;2022-09-09T08:38:40;8.82;;;4.97;;
7334;SDS011;3708;42.632;23.378;2022-09-09T08:41:13;10.23;;;4.63;;
7334;SDS011;3708;42.632;23.378;2022-09-09T08:44:06;8.65;;;4.88;;
7334;SDS011;3708;42.632;23.378;2022-09-09T08:46:40;7.50;;;4.70;;
7334;SDS011;3708;42.632;23.378;2022-09-09T08:49:22;9.70;;;5.10;;
7334;SDS011;3708;42.632;23.378;2022-09-09T08:52:04;14.65;;;5.60;;
7334;SDS011;3708;42.632;23.378;2022-09-09T08:54:41;8.25;;;5.25;;
7334;SDS011;3708;42.632;23.378;2022-09-09T08:57:11;11.98;;;5.75;;
7334;SDS011;3708;42.632;23.378;2022-09-09T08:59:45;5.65;;;4.63;;
7334;SDS011;3708;42.632;23.378;2022-09-09T09:02:14;11.75;;;5.18;;
7334;SDS011;3708;42.632;23.378;2022-09-09T09:04:55;10.02;;;5.00;;
7334;SDS011;3708;42.632;23.378;2022-09-09T09:07:33;9.02;;;4.78;;
7334;SDS011;3708;42.632;23.378;2022-09-09T09:10:12;11.98;;;5.07;;
7334;SDS011;3708;42.632;23.378;2022-09-09T09:12:48;8.18;;;5.20;;
7334;SDS011;3708;42.632;23.378;2022-09-09T09:15:16;6.25;;;4.63;;
7334;SDS011;3708;42.632;23.378;2022-09-09T09:17:47;5.25;;;4.75;;
7334;SDS011;3708;42.632;23.378;2022-09-09T09:20:15;6.25;;;4.82;;
7334;SDS011;3708;42.632;23.378;2022-09-09T09:22:47;5.57;;;4.70;;
7334;SDS011;3708;42.632;23.378;2022-09-09T09:25:17;16.20;;;5.30;;
7334;SDS011;3708;42.632;23.378;2022-09-09T09:27:49;9.15;;;4.90;;
7334;SDS011;3708;42.632;23.378;2022-09-09T09:30:25;16.10;;;4.75;;
7334;SDS011;3708;42.632;23.378;2022-09-09T09:32:57;6.25;;;5.13;;
7334;SDS011;3708;42.632;23.378;2022-09-09T09:35:27;10.38;;;4.72;;
7334;SDS011;3708;42.632;23.378;2022-09-09T09:37:54;8.80;;;4.55;;
7334;SDS011;3708;42.632;23.378;2022-09-09T09:40:22;9.57;;;4.82;;
7334;SDS011;3708;42.632;23.378;2022-09-09T09:42:52;5.93;;;4.88;;
7334;SDS011;3708;42.632;23.378;2022-09-09T09:45:25;9.27;;;5.25;;
7334;SDS011;3708;42.632;23.378;2022-09-09T09:48:00;9.40;;;4.70;;
7334;SDS011;3708;42.632;23.378;2022-09-09T09:50:29;8.48;;;5.57;;
7334;SDS011;3708;42.632;23.378;2022-09-09T09:52:58;18.10;;;6.00;;
7334;SDS011;3708;42.632;23.378;2022-09-09T09:55:27;7.18;;;5.50;;
7334;SDS011;3708;42.632;23.378;2022-09-09T09:58:02;13.32;;;5.07;;
7334;SDS011;3708;42.632;23.378;2022-09-09T10:00:30;8.27;;;5.53;;
7334;SDS011;3708;42.632;23.378;2022-09-09T10:02:59;8.10;;;4.70;;
7334;SDS011;3708;42.632;23.378;2022-09-09T10:05:27;10.90;;;5.00;;
7334;SDS011;3708;42.632;23.378;2022-09-09T10:08:04;12.40;;;5.13;;
7334;SDS011;3708;42.632;23.378;2022-09-09T10:10:48;7.53;;;5.03;;
7334;SDS011;3708;42.632;23.378;2022-09-09T10:13:28;8.95;;;5.00;;
7334;SDS011;3708;42.632;23.378;2022-09-09T10:16:07;13.88;;;5.20;;
7334;SDS011;3708;42.632;23.378;2022-09-09T10:18:50;12.98;;;5.97;;
7334;SDS011;3708;42.632;23.378;2022-09-09T10:21:32;6.70;;;4.90;;
7334;SDS011;3708;42.632;23.378;2022-09-09T10:27:10;7.20;;;5.47;;
7334;SDS011;3708;42.632;23.378;2022-09-09T10:29:57;12.02;;;5.13;;
7334;SDS011;3708;42.632;23.378;2022-09-09T10:32:38;10.55;;;5.05;;
7334;SDS011;3708;42.632;23.378;2022-09-09T10:35:12;7.07;;;4.75;;
7334;SDS011;3708;42.632;23.378;2022-09-09T10:37:55;7.20;;;5.15;;
7334;SDS011;3708;42.632;23.378;2022-09-09T10:40:44;13.23;;;4.63;;
7334;SDS011;3708;42.632;23.378;2022-09-09T10:43:38;6.30;;;4.57;;
7334;SDS011;3708;42.632;23.378;2022-09-09T10:46:16;11.57;;;5.20;;
7334;SDS011;3708;42.632;23.378;2022-09-09T10:48:59;10.75;;;5.75;;
7334;SDS011;3708;42.632;23.378;2022-09-09T10:51:36;10.60;;;5.90;;
7334;SDS011;3708;42.632;23.378;2022-09-09T10:54:12;13.05;;;5.63;;
7334;SDS011;3708;42.632;23.378;2022-09-09T10:56:49;7.28;;;4.68;;
7334;SDS011;3708;42.632;23.378;2022-09-09T10:59:23;6.55;;;5.38;;
7334;SDS011;3708;42.632;23.378;2022-09-09T11:01:55;17.73;;;6.18;;
7334;SDS011;3708;42.632;23.378;2022-09-09T11:04:27;13.48;;;5.57;;
7334;SDS011;3708;42.632;23.378;2022-09-09T11:07:01;9.13;;;4.90;;
7334;SDS011;3708;42.632;23.378;2022-09-09T11:09:35;7.40;;;5.30;;
7334;SDS011;3708;42.632;23.378;2022-09-09T11:12:09;8.30;;;5.57;;
7334;SDS011;3708;42.632;23.378;2022-09-09T11:14:43;9.38;;;5.40;;
7334;SDS011;3708;42.632;23.378;2022-09-09T11:17:16;8.50;;;5.15;;
7334;SDS011;3708;42.632;23.378;2022-09-09T11:19:47;8.75;;;5.57;;
7334;SDS011;3708;42.632;23.378;2022-09-09T11:22:20;9.35;;;5.22;;
7334;SDS011;3708;42.632;23.378;2022-09-09T11:24:55;13.20;;;6.10;;
7334;SDS011;3708;42.632;23.378;2022-09-09T11:27:26;8.27;;;5.22;;
7334;SDS011;3708;42.632;23.378;2022-09-09T11:30:05;12.80;;;5.85;;
7334;SDS011;3708;42.632;23.378;2022-09-09T11:35:47;8.13;;;5.53;;
7334;SDS011;3708;42.632;23.378;2022-09-09T11:38:31;12.85;;;6.30;;
7334;SDS011;3708;42.632;23.378;2022-09-09T11:41:04;10.25;;;6.10;;
7334;SDS011;3708;42.632;23.378;2022-09-09T11:43:38;12.30;;;5.82;;
7334;SDS011;3708;42.632;23.378;2022-09-09T11:46:06;8.88;;;5.53;;
7334;SDS011;3708;42.632;23.378;2022-09-09T11:48:36;12.45;;;5.55;;
7334;SDS011;3708;42.632;23.378;2022-09-09T11:51:06;13.68;;;5.78;;
7334;SDS011;3708;42.632;23.378;2022-09-09T11:53:46;10.23;;;6.10;;
7334;SDS011;3708;42.632;23.378;2022-09-09T11:56:23;11.43;;;5.85;;
7334;SDS011;3708;42.632;23.378;2022-09-09T11:58:56;11.75;;;5.68;;
7334;SDS011;3708;42.632;23.378;2022-09-09T12:01:30;14.77;;;6.15;;
7334;SDS011;3708;42.632;23.378;2022-09-09T12:04:17;9.65;;;5.85;;
7334;SDS011;3708;42.632;23.378;2022-09-09T12:06:56;8.68;;;5.55;;
7334;SDS011;3708;42.632;23.378;2022-09-09T12:09:30;11.77;;;5.75;;
7334;SDS011;3708;42.632;23.378;2022-09-09T12:12:17;11.73;;;5.78;;
7334;SDS011;3708;42.632;23.378;2022-09-09T12:17:46;10.77;;;6.22;;
7334;SDS011;3708;42.632;23.378;2022-09-09T12:20:17;10.23;;;5.82;;
7334;SDS011;3708;42.632;23.378;2022-09-09T12:22:54;9.23;;;6.45;;
7334;SDS011;3708;42.632;23.378;2022-09-09T12:25:33;8.32;;;5.85;;
7334;SDS011;3708;42.632;23.378;2022-09-09T12:28:12;8.65;;;5.18;;
7334;SDS011;3708;42.632;23.378;2022-09-09T12:30:48;13.23;;;5.70;;
7334;SDS011;3708;42.632;23.378;2022-09-09T12:33:23;8.40;;;5.53;;
7334;SDS011;3708;42.632;23.378;2022-09-09T12:35:51;12.30;;;5.47;;
7334;SDS011;3708;42.632;23.378;2022-09-09T12:38:25;10.30;;;5.65;;
7334;SDS011;3708;42.632;23.378;2022-09-09T12:40:58;12.30;;;6.00;;
7334;SDS011;3708;42.632;23.378;2022-09-09T12:43:26;18.45;;;6.03;;
7334;SDS011;3708;42.632;23.378;2022-09-09T12:45:54;14.52;;;6.05;;
7334;SDS011;3708;42.632;23.378;2022-09-09T12:48:28;11.05;;;6.38;;
7334;SDS011;3708;42.632;23.378;2022-09-09T12:50:59;18.90;;;6.18;;
7334;SDS011;3708;42.632;23.378;2022-09-09T12:53:29;11.07;;;5.30;;
7334;SDS011;3708;42.632;23.378;2022-09-09T12:55:59;12.90;;;5.55;;
7334;SDS011;3708;42.632;23.378;2022-09-09T12:58:28;11.38;;;6.20;;
7334;SDS011;3708;42.632;23.378;2022-09-09T13:00:58;9.02;;;6.60;;
7334;SDS011;3708;42.632;23.378;2022-09-09T13:03:26;10.30;;;6.25;;
7334;SDS011;3708;42.632;23.378;2022-09-09T13:06:10;12.88;;;6.35;;
7334;SDS011;3708;42.632;23.378;2022-09-09T13:08:40;15.63;;;6.75;;
7334;SDS011;3708;42.632;23.378;2022-09-09T13:11:10;11.60;;;5.45;;
7334;SDS011;3708;42.632;23.378;2022-09-09T13:13:41;8.50;;;6.00;;
7334;SDS011;3708;42.632;23.378;2022-09-09T13:16:18;10.90;;;6.30;;
7334;SDS011;3708;42.632;23.378;2022-09-09T13:18:48;8.45;;;6.25;;
7334;SDS011;3708;42.632;23.378;2022-09-09T13:21:15;13.57;;;5.85;;
7334;SDS011;3708;42.632;23.378;2022-09-09T13:23:48;8.27;;;5.47;;
7334;SDS011;3708;42.632;23.378;2022-09-09T13:26:21;13.27;;;5.70;;
7334;SDS011;3708;42.632;23.378;2022-09-09T13:28:50;12.25;;;5.60;;
7334;SDS011;3708;42.632;23.378;2022-09-09T13:31:20;9.45;;;5.45;;
7334;SDS011;3708;42.632;23.378;2022-09-09T13:33:48;11.02;;;6.28;;
7334;SDS011;3708;42.632;23.378;2022-09-09T13:36:15;18.73;;;6.03;;
7334;SDS011;3708;42.632;23.378;2022-09-09T13:38:54;12.05;;;6.82;;
7334;SDS011;3708;42.632;23.378;2022-09-09T13:41:25;10.43;;;6.22;;
7334;SDS011;3708;42.632;23.378;2022-09-09T13:44:01;11.48;;;6.47;;
7334;SDS011;3708;42.632;23.378;2022-09-09T13:46:32;15.98;;;6.80;;
7334;SDS011;3708;42.632;23.378;2022-09-09T13:49:03;18.35;;;6.40;;
7334;SDS011;3708;42.632;23.378;2022-09-09T13:51:47;14.20;;;5.93;;
7334;SDS011;3708;42.632;23.378;2022-09-09T13:54:19;44.35;;;8.27;;
7334;SDS011;3708;42.632;23.378;2022-09-09T13:56:48;16.73;;;6.32;;
7334;SDS011;3708;42.632;23.378;2022-09-09T13:59:15;19.15;;;7.00;;
7334;SDS011;3708;42.632;23.378;2022-09-09T14:01:45;14.57;;;5.85;;
7334;SDS011;3708;42.632;23.378;2022-09-09T14:04:12;11.45;;;5.80;;
7334;SDS011;3708;42.632;23.378;2022-09-09T14:06:40;14.10;;;6.07;;
7334;SDS011;3708;42.632;23.378;2022-09-09T14:09:10;13.20;;;5.93;;
7334;SDS011;3708;42.632;23.378;2022-09-09T14:11:39;20.88;;;6.45;;
7334;SDS011;3708;42.632;23.378;2022-09-09T14:14:06;72.82;;;11.38;;
7334;SDS011;3708;42.632;23.378;2022-09-09T14:16:33;78.18;;;13.80;;
7334;SDS011;3708;42.632;23.378;2022-09-09T14:19:00;30.80;;;7.47;;
7334;SDS011;3708;42.632;23.378;2022-09-09T14:21:27;17.73;;;6.70;;
7334;SDS011;3708;42.632;23.378;2022-09-09T14:23:54;26.60;;;6.35;;
7334;SDS011;3708;42.632;23.378;2022-09-09T14:26:23;38.53;;;9.25;;
7334;SDS011;3708;42.632;23.378;2022-09-09T14:28:52;14.88;;;5.93;;
7334;SDS011;3708;42.632;23.378;2022-09-09T14:31:19;9.98;;;5.57;;
7334;SDS011;3708;42.632;23.378;2022-09-09T14:33:46;248.50;;;29.98;;
7334;SDS011;3708;42.632;23.378;2022-09-09T14:36:13;145.13;;;19.73;;
7334;SDS011;3708;42.632;23.378;2022-09-09T14:38:41;26.63;;;7.07;;
7334;SDS011;3708;42.632;23.378;2022-09-09T14:41:13;20.33;;;5.88;;
7334;SDS011;3708;42.632;23.378;2022-09-09T14:43:42;13.18;;;6.05;;
7334;SDS011;3708;42.632;23.378;2022-09-09T14:46:11;16.30;;;5.93;;
7334;SDS011;3708;42.632;23.378;2022-09-09T14:48:39;14.88;;;5.80;;
7334;SDS011;3708;42.632;23.378;2022-09-09T14:51:07;8.63;;;6.15;;
7334;SDS011;3708;42.632;23.378;2022-09-09T14:53:35;13.95;;;5.97;;
7334;SDS011;3708;42.632;23.378;2022-09-09T14:56:03;10.32;;;5.57;;
7334;SDS011;3708;42.632;23.378;2022-09-09T14:58:31;11.48;;;6.13;;
7334;SDS011;3708;42.632;23.378;2022-09-09T15:01:01;9.93;;;6.25;;
7334;SDS011;3708;42.632;23.378;2022-09-09T15:03:31;10.30;;;6.00;;
7334;SDS011;3708;42.632;23.378;2022-09-09T15:06:04;11.02;;;6.13;;
7334;SDS011;3708;42.632;23.378;2022-09-09T15:08:31;11.27;;;6.63;;
7334;SDS011;3708;42.632;23.378;2022-09-09T15:10:59;11.75;;;6.38;;
7334;SDS011;3708;42.632;23.378;2022-09-09T15:13:27;12.30;;;7.20;;
7334;SDS011;3708;42.632;23.378;2022-09-09T15:15:54;20.23;;;7.03;;
7334;SDS011;3708;42.632;23.378;2022-09-09T15:18:21;11.32;;;6.40;;
7334;SDS011;3708;42.632;23.378;2022-09-09T15:20:49;14.63;;;5.97;;
7334;SDS011;3708;42.632;23.378;2022-09-09T15:23:16;12.93;;;5.70;;
7334;SDS011;3708;42.632;23.378;2022-09-09T15:25:52;10.07;;;6.95;;
7334;SDS011;3708;42.632;23.378;2022-09-09T15:28:20;11.77;;;7.13;;